Draffin, Kentucky
Current Conditions -  °F | °C
As of 12:55 PM on Friday 21 Nov 2014 (Local Time) from KPBX Reporting Station
Clear Clear  
Wind Chill: 34°   Ceiling: Unl
Heat Index: 34°   Visibility: 10mi
Dew Point: 13°   Wind: 3mph
Humidity: 43%   Direction: 30°NNE
Pressure: 30.45"   Gusts: NA
Location:  37.3089°N, 82.3418°W
Report Text: KPBX 211755Z AUTO 03003KT 10SM CLR 01/M10 A3045 RMK AO2 T00111104 10011 21049
Loading
Personal Weather Stations






























Interactive Weather Map New forecast layout! Learn more

10-Day Weather Forecast

Advertisements
Track Severe Weather on mobile